Terminal Aerodrome Forecast
Issued by NWS

Home | Current Version | Previous Version | Text Only | Print | Product List | Glossary On
Versions: 1 2 3 4 5 6 7 8 9 10 11 12 13 14 15 16 17 18 19 20
918
FTUS46 KSEW 122351
TAFHQM
TAF
KHQM 122351Z 1300/1324 20012KT 6SM BR VCSH SCT015 BKN035
     FM130700 19008KT 4SM -SHRA BR SCT010 BKN015 OVC025
     FM131100 16007KT 6SM BR VCSH BKN015 OVC030
     FM131700 16018G30KT 3SM -RA BR SCT006 OVC010=

USA.gov is the U.S. government's official web portal to all federal, state and local government web resources and services.